createdAt,value
2018-06-08T00:01:16.720Z,3.70
2018-06-08T00:03:46.021Z,4.00
2018-06-08T00:06:15.752Z,4.13
2018-06-08T00:08:45.346Z,4.33
2018-06-08T00:11:14.740Z,3.83
2018-06-08T00:13:43.932Z,3.67
2018-06-08T00:16:13.749Z,3.40
2018-06-08T00:18:43.148Z,3.73
2018-06-08T00:21:12.674Z,4.13
2018-06-08T00:23:42.464Z,3.73
2018-06-08T00:26:11.987Z,3.73
2018-06-08T00:28:41.373Z,4.67
2018-06-08T00:31:10.978Z,4.03
2018-06-08T00:33:40.484Z,4.17
2018-06-08T00:36:09.889Z,4.23
2018-06-08T00:38:39.395Z,4.47
2018-06-08T00:41:08.902Z,3.80
2018-06-08T00:43:38.502Z,4.10
2018-06-08T00:46:07.904Z,3.40
2018-06-08T00:48:37.204Z,4.00
2018-06-08T00:51:06.607Z,3.53
2018-06-08T00:53:35.904Z,3.93
2018-06-08T00:56:05.203Z,3.73
2018-06-08T00:58:34.805Z,4.30
2018-06-08T01:01:04.322Z,4.13
2018-06-08T01:03:33.514Z,4.27
2018-06-08T01:06:03.119Z,4.80
2018-06-08T01:08:33.147Z,4.47
2018-06-08T01:11:02.743Z,3.60
2018-06-08T01:13:32.455Z,4.23
2018-06-08T01:16:02.058Z,3.73
2018-06-08T01:18:31.468Z,3.13
2018-06-08T01:21:00.883Z,3.60
2018-06-08T01:23:30.373Z,3.67
2018-06-08T01:25:59.675Z,3.63
2018-06-08T01:28:28.863Z,4.17
2018-06-08T01:30:58.268Z,4.20
2018-06-08T01:33:28.179Z,3.67
2018-06-08T01:35:57.687Z,3.97
2018-06-08T01:38:26.986Z,3.57
2018-06-08T01:40:56.390Z,3.97
2018-06-08T01:43:25.890Z,3.70
2018-06-08T01:45:55.315Z,3.40
2018-06-08T01:48:25.121Z,3.80
2018-06-08T01:50:54.524Z,3.50
2018-06-08T01:53:23.910Z,3.40
2018-06-08T01:55:53.832Z,3.60
2018-06-08T01:58:23.433Z,3.00
2018-06-08T02:00:52.880Z,3.50
2018-06-08T02:03:22.235Z,3.73
2018-06-08T02:05:52.147Z,3.50
2018-06-08T02:08:21.984Z,3.40
2018-06-08T02:10:51.465Z,3.93
2018-06-08T02:13:20.762Z,3.13
2018-06-08T02:15:50.374Z,3.90
2018-06-08T02:18:20.202Z,3.47
2018-06-08T02:20:49.379Z,3.80
2018-06-08T02:23:18.782Z,3.70
2018-06-08T02:25:48.392Z,3.70
2018-06-08T02:28:18.002Z,4.17
2018-06-08T02:30:47.400Z,3.23
2018-06-08T02:33:16.801Z,3.00
2018-06-08T02:35:46.211Z,3.60
2018-06-08T02:38:15.721Z,3.07
2018-06-08T02:40:45.527Z,3.77
2018-06-08T02:43:15.126Z,3.73
2018-06-08T02:45:45.049Z,3.53
2018-06-08T02:48:15.072Z,3.47
2018-06-08T02:50:44.571Z,3.57
2018-06-08T02:53:14.095Z,3.13
2018-06-08T02:55:43.367Z,3.40
2018-06-08T02:58:12.763Z,3.60
2018-06-08T03:00:42.181Z,4.00
2018-06-08T03:03:11.473Z,3.50
2018-06-08T03:05:42.101Z,4.07
2018-06-08T03:08:11.406Z,3.43
2018-06-08T03:10:40.756Z,3.70
2018-06-08T03:13:10.411Z,3.03
2018-06-08T03:15:40.120Z,3.80
2018-06-08T03:18:09.523Z,4.27
2018-06-08T03:20:39.028Z,3.17
2018-06-08T03:23:08.633Z,3.53
2018-06-08T03:25:38.357Z,10.33
2018-06-08T03:28:07.950Z,11.33
2018-06-08T03:30:37.146Z,9.30
2018-06-08T03:33:06.450Z,6.60
2018-06-08T03:35:36.155Z,4.80
2018-06-08T03:38:05.984Z,4.83
2018-06-08T03:40:35.576Z,4.57
2018-06-08T03:43:04.876Z,3.77
2018-06-08T03:45:34.380Z,4.40
2018-06-08T03:48:03.992Z,4.00
2018-06-08T03:50:33.594Z,3.93
2018-06-08T03:53:03.096Z,4.17
2018-06-08T03:55:32.809Z,4.40
2018-06-08T03:58:02.632Z,3.87
2018-06-08T04:00:32.547Z,4.10
2018-06-08T04:03:02.552Z,4.90
2018-06-08T04:05:32.686Z,5.50
2018-06-08T04:08:02.586Z,4.77
2018-06-08T04:10:32.316Z,4.10
2018-06-08T04:13:02.811Z,4.17
2018-06-08T04:15:32.546Z,4.00
2018-06-08T04:18:01.815Z,4.50
2018-06-08T04:20:31.130Z,4.17
2018-06-08T04:23:00.962Z,4.30
2018-06-08T04:25:31.057Z,3.50
2018-06-08T04:28:01.690Z,4.07
2018-06-08T04:30:31.600Z,3.97
2018-06-08T04:33:01.564Z,3.37
2018-06-08T04:35:31.126Z,4.00
2018-06-08T04:38:01.058Z,4.13
2018-06-08T04:40:30.890Z,3.60
2018-06-08T04:43:00.702Z,3.80
2018-06-08T04:45:30.372Z,3.70
2018-06-08T04:48:01.207Z,3.70
2018-06-08T04:50:31.117Z,4.00
2018-06-08T04:53:01.137Z,3.60
2018-06-08T04:55:31.670Z,4.70
2018-06-08T04:58:01.588Z,3.90
2018-06-08T05:00:32.625Z,4.47
2018-06-08T05:03:02.572Z,4.20
2018-06-08T05:05:32.254Z,4.07
2018-06-08T05:08:02.475Z,3.73
2018-06-08T05:10:32.892Z,3.97
2018-06-08T05:13:02.606Z,4.03
2018-06-08T05:15:32.623Z,4.20
2018-06-08T05:18:02.544Z,4.70
2018-06-08T05:20:32.563Z,3.77
2018-06-08T05:23:02.466Z,5.07
2018-06-08T05:25:32.284Z,5.00
2018-06-08T05:28:02.399Z,5.20
2018-06-08T05:30:32.123Z,5.40
2018-06-08T05:33:02.027Z,4.70
2018-06-08T05:35:32.136Z,4.50
2018-06-08T05:38:02.769Z,4.57
2018-06-08T05:40:32.768Z,4.20
2018-06-08T05:43:02.595Z,4.10
2018-06-08T05:45:32.201Z,4.33
2018-06-08T05:48:02.216Z,4.50
2018-06-08T05:50:31.754Z,3.73
2018-06-08T05:53:01.545Z,4.37
2018-06-08T05:55:32.084Z,4.73
2018-06-08T05:58:01.882Z,4.40
2018-06-08T06:00:31.887Z,4.23
2018-06-08T06:03:01.913Z,4.07
2018-06-08T06:05:32.128Z,4.80
2018-06-08T06:08:01.836Z,4.03
2018-06-08T06:10:31.446Z,4.67
2018-06-08T06:13:01.154Z,4.20
2018-06-08T06:15:31.493Z,4.53
2018-06-08T06:18:01.625Z,4.00
2018-06-08T06:20:31.614Z,5.13
2018-06-08T06:23:01.134Z,4.43
2018-06-08T06:25:31.137Z,5.00
2018-06-08T06:28:01.164Z,4.30
2018-06-08T06:30:30.984Z,3.80
2018-06-08T06:33:01.180Z,4.37
2018-06-08T06:35:31.203Z,4.33
2018-06-08T06:38:01.012Z,3.60
2018-06-08T06:40:30.824Z,4.63
2018-06-08T06:43:00.827Z,4.47
2018-06-08T06:45:31.366Z,4.57
2018-06-08T06:48:01.385Z,4.07
2018-06-08T06:50:31.504Z,4.43
2018-06-08T06:53:01.211Z,4.03
2018-06-08T06:55:32.665Z,4.67
2018-06-08T06:58:02.575Z,3.90
2018-06-08T07:00:32.502Z,4.53
2018-06-08T07:03:02.759Z,4.83
2018-06-08T07:05:32.521Z,4.03
2018-06-08T07:08:02.541Z,4.57
2018-06-08T07:10:32.575Z,4.40
2018-06-08T07:13:02.470Z,4.30
2018-06-08T07:15:32.305Z,4.17
2018-06-08T07:18:02.194Z,4.43
2018-06-08T07:20:32.113Z,4.60
2018-06-08T07:23:02.255Z,3.77
2018-06-08T07:25:32.053Z,3.73
2018-06-08T07:28:03.052Z,4.40
2018-06-08T07:30:32.493Z,4.20
2018-06-08T07:33:02.308Z,3.60
2018-06-08T07:35:32.134Z,3.23
2018-06-08T07:38:02.753Z,3.67
2018-06-08T07:40:32.551Z,3.90
2018-06-08T07:43:03.177Z,3.73
2018-06-08T07:45:37.805Z,3.60
2018-06-08T07:48:08.127Z,2.70
2018-06-08T07:50:38.152Z,3.50
2018-06-08T07:53:09.392Z,3.60
2018-06-08T07:55:39.302Z,3.60
2018-06-08T07:58:08.936Z,4.03
2018-06-08T08:00:38.624Z,3.73
2018-06-08T08:03:08.328Z,3.63
2018-06-08T08:05:38.653Z,3.27
2018-06-08T08:08:08.575Z,3.30
2018-06-08T08:10:38.393Z,3.70
2018-06-08T08:13:07.986Z,3.53
2018-06-08T08:15:38.308Z,3.30
2018-06-08T08:18:08.133Z,3.00
2018-06-08T08:20:38.033Z,2.77
2018-06-08T08:23:08.562Z,2.93
2018-06-08T08:25:38.594Z,2.50
2018-06-08T08:28:08.082Z,2.63
2018-06-08T08:30:37.895Z,2.40
2018-06-08T08:33:07.796Z,3.10
2018-06-08T08:35:38.137Z,2.67
2018-06-08T08:38:07.981Z,3.17
2018-06-08T08:40:37.656Z,2.80
2018-06-08T08:43:09.782Z,2.80
2018-06-08T08:45:39.687Z,2.73
2018-06-08T08:48:09.676Z,3.20
2018-06-08T08:50:39.572Z,2.50
2018-06-08T08:53:09.093Z,3.23
2018-06-08T08:55:39.193Z,2.80
2018-06-08T08:58:08.714Z,2.70
2018-06-08T09:00:38.505Z,2.90
2018-06-08T09:03:08.226Z,3.13
2018-06-08T09:05:37.929Z,3.20
2018-06-08T09:08:07.654Z,2.60
2018-06-08T09:10:38.160Z,2.80
2018-06-08T09:13:11.555Z,2.27
2018-06-08T09:15:41.161Z,3.00
2018-06-08T09:18:10.876Z,3.03
2018-06-08T09:20:40.593Z,2.50
2018-06-08T09:23:09.985Z,3.10
2018-06-08T09:25:39.691Z,2.97
2018-06-08T09:28:08.992Z,8.17
2018-06-08T09:30:42.616Z,4.70
2018-06-08T09:33:12.632Z,3.07
2018-06-08T09:35:44.789Z,3.47
2018-06-08T09:38:14.613Z,3.17
2018-06-08T09:40:43.998Z,3.20
2018-06-08T09:43:13.794Z,3.10
2018-06-08T09:45:43.627Z,2.50
2018-06-08T09:48:13.221Z,2.73
2018-06-08T09:50:42.628Z,3.10
2018-06-08T09:53:12.648Z,2.50
2018-06-08T09:55:42.245Z,2.70
2018-06-08T09:58:14.927Z,2.70
2018-06-08T10:00:44.852Z,3.37
2018-06-08T10:03:14.751Z,2.73
2018-06-08T10:05:44.773Z,2.37
2018-06-08T10:08:14.480Z,3.00
2018-06-08T10:10:44.088Z,2.73
2018-06-08T10:13:14.133Z,2.83
2018-06-08T10:15:44.220Z,5.00
2018-06-08T10:18:14.546Z,3.90
2018-06-08T10:20:44.378Z,3.10
2018-06-08T10:23:14.601Z,3.00
2018-06-08T10:25:44.714Z,3.37
2018-06-08T10:28:14.225Z,3.10
2018-06-08T10:30:44.037Z,3.10
2018-06-08T10:33:13.752Z,3.10
2018-06-08T10:35:43.028Z,3.30
2018-06-08T10:38:12.822Z,3.13
2018-06-08T10:40:42.545Z,2.50
2018-06-08T10:43:12.562Z,2.90
2018-06-08T10:45:42.494Z,2.87
2018-06-08T10:48:12.314Z,3.03
2018-06-08T10:50:41.775Z,3.07
2018-06-08T10:53:10.885Z,2.93
2018-06-08T10:55:40.595Z,3.27
2018-06-08T10:58:10.013Z,2.63
2018-06-08T11:00:39.504Z,2.93
2018-06-08T11:03:08.906Z,2.83
2018-06-08T11:05:38.209Z,3.17
2018-06-08T11:08:07.504Z,3.10
2018-06-08T11:10:37.632Z,3.40
2018-06-08T11:13:07.354Z,3.20
2018-06-08T11:15:36.741Z,3.53
2018-06-08T11:18:06.260Z,3.67
2018-06-08T11:20:35.443Z,3.73
2018-06-08T11:23:04.961Z,3.63
2018-06-08T11:25:34.239Z,3.27
2018-06-08T11:28:03.946Z,3.23
2018-06-08T11:30:33.375Z,3.00
2018-06-08T11:33:02.856Z,3.10
2018-06-08T11:35:32.285Z,3.00
2018-06-08T11:38:01.662Z,3.20
2018-06-08T11:40:31.370Z,3.53
2018-06-08T11:43:00.883Z,3.50
2018-06-08T11:45:30.274Z,3.33
2018-06-08T11:47:59.984Z,3.20
2018-06-08T11:50:29.397Z,3.50
2018-06-08T11:52:59.200Z,3.63
2018-06-08T11:55:28.715Z,3.20
2018-06-08T11:57:58.540Z,3.33
2018-06-08T12:00:31.192Z,2.57
2018-06-08T12:03:02.329Z,3.20
2018-06-08T12:05:38.604Z,3.17
2018-06-08T12:08:10.248Z,3.40
2018-06-08T12:10:40.366Z,3.13
2018-06-08T12:13:14.272Z,2.80
2018-06-08T12:15:44.795Z,2.93
2018-06-08T12:18:15.239Z,2.77
2018-06-08T12:20:44.944Z,3.13
2018-06-08T12:23:18.237Z,3.23
2018-06-08T12:25:49.073Z,3.10
2018-06-08T12:28:20.015Z,3.10
2018-06-08T12:30:53.093Z,3.10
2018-06-08T12:33:27.930Z,3.10
2018-06-08T12:35:58.462Z,2.63
2018-06-08T12:38:29.699Z,3.50
2018-06-08T12:40:59.508Z,2.80
2018-06-08T12:43:30.366Z,3.47
2018-06-08T12:46:01.194Z,2.93
2018-06-08T12:48:33.156Z,2.73
2018-06-08T12:51:07.750Z,3.23
2018-06-08T12:53:37.584Z,3.40
2018-06-08T12:56:08.730Z,3.10
2018-06-08T12:58:38.646Z,3.10
2018-06-08T13:01:08.552Z,3.53
2018-06-08T13:03:39.095Z,3.07
2018-06-08T13:06:11.357Z,3.37
2018-06-08T13:08:45.054Z,2.87
2018-06-08T13:11:17.025Z,2.73
2018-06-08T13:13:47.654Z,3.67
2018-06-08T13:16:25.133Z,2.93
2018-06-08T13:18:55.277Z,3.17
2018-06-08T13:21:28.854Z,6.80
2018-06-08T13:23:59.386Z,5.17
2018-06-08T13:26:29.004Z,3.63
2018-06-08T13:29:01.170Z,3.33
2018-06-08T13:31:31.100Z,4.10
2018-06-08T13:34:06.115Z,4.50
2018-06-08T13:36:37.979Z,4.30
2018-06-08T13:39:09.763Z,4.37
2018-06-08T13:41:40.987Z,3.50
2018-06-08T13:44:10.988Z,3.67
2018-06-08T13:46:45.208Z,3.93
2018-06-08T13:49:15.629Z,3.40
2018-06-08T13:51:47.761Z,4.30
2018-06-08T13:54:26.548Z,3.40
2018-06-08T13:57:00.641Z,3.70
2018-06-08T13:59:31.683Z,3.33
2018-06-08T14:02:02.309Z,3.70
2018-06-08T14:04:33.136Z,4.03
2018-06-08T14:07:06.352Z,3.70
2018-06-08T14:09:37.160Z,4.40
2018-06-08T14:12:08.302Z,3.77
2018-06-08T14:14:38.221Z,3.40
2018-06-08T14:17:08.859Z,3.23
2018-06-08T14:19:38.880Z,4.20
2018-06-08T14:22:11.643Z,4.10
2018-06-08T14:24:41.569Z,3.87
2018-06-08T14:27:12.809Z,3.57
2018-06-08T14:29:44.571Z,3.73
2018-06-08T14:32:15.099Z,3.70
2018-06-08T14:34:45.635Z,3.70
2018-06-08T14:37:18.916Z,3.73
2018-06-08T14:39:50.057Z,3.63
2018-06-08T14:42:23.358Z,3.30
2018-06-08T14:44:53.374Z,3.17
2018-06-08T14:47:23.181Z,3.20
2018-06-08T14:49:54.813Z,3.70
2018-06-08T14:52:25.670Z,3.83
2018-06-08T14:54:58.044Z,3.87
2018-06-08T14:57:28.785Z,3.50
2018-06-08T14:59:58.492Z,4.00
2018-06-08T15:02:29.522Z,3.50
2018-06-08T15:05:00.673Z,3.40
2018-06-08T15:07:30.595Z,3.60
2018-06-08T15:10:01.526Z,4.17
2018-06-08T15:12:31.741Z,3.37
2018-06-08T15:15:01.879Z,3.37
2018-06-08T15:17:32.500Z,3.83
2018-06-08T15:20:02.828Z,4.23
2018-06-08T15:22:33.851Z,4.10
2018-06-08T15:25:04.501Z,4.13
2018-06-08T15:27:34.410Z,3.93
2018-06-08T15:30:03.908Z,4.30
2018-06-08T15:32:34.030Z,4.37
2018-06-08T15:35:04.074Z,4.37
2018-06-08T15:37:33.874Z,2.90
2018-06-08T15:40:03.298Z,3.70
2018-06-08T15:42:32.794Z,3.70
2018-06-08T15:45:01.984Z,4.87
2018-06-08T15:47:31.498Z,4.33
2018-06-08T15:50:01.094Z,4.10
2018-06-08T15:52:30.789Z,4.43
2018-06-08T15:55:00.091Z,4.97
2018-06-08T15:57:30.099Z,4.20
2018-06-08T15:59:59.605Z,4.85
2018-06-08T16:02:29.115Z,4.22
2018-06-08T16:04:58.613Z,4.70
2018-06-08T16:07:27.800Z,4.03
2018-06-08T16:09:57.419Z,5.60
2018-06-08T16:12:27.125Z,4.65
2018-06-08T16:14:56.937Z,4.15
2018-06-08T16:17:26.441Z,4.53
2018-06-08T16:19:55.842Z,3.90
2018-06-08T16:22:25.992Z,4.03
2018-06-08T16:24:55.876Z,3.37
2018-06-08T16:27:25.486Z,4.17
2018-06-08T16:29:54.803Z,3.72
2018-06-08T16:32:24.705Z,4.03
2018-06-08T16:34:55.026Z,3.93
2018-06-08T16:37:25.554Z,4.20
2018-06-08T16:39:56.714Z,4.23
2018-06-08T16:42:26.509Z,4.50
2018-06-08T16:44:55.793Z,4.43
2018-06-08T16:47:25.621Z,3.97
2018-06-08T16:49:55.227Z,3.83
2018-06-08T16:52:24.731Z,4.50
2018-06-08T16:54:54.234Z,3.90
2018-06-08T16:57:23.743Z,3.93
2018-06-08T16:59:53.764Z,4.20
2018-06-08T17:02:23.573Z,4.00
2018-06-08T17:04:53.583Z,4.07
2018-06-08T17:07:23.703Z,4.30
2018-06-08T17:09:53.766Z,4.37
2018-06-08T17:12:23.432Z,4.37
2018-06-08T17:14:52.955Z,4.10
2018-06-08T17:17:22.655Z,4.00
2018-06-08T17:19:52.048Z,4.40
2018-06-08T17:22:22.176Z,4.00
2018-06-08T17:24:51.667Z,4.30
2018-06-08T17:27:22.299Z,4.47
2018-06-08T17:29:52.107Z,3.87
2018-06-08T17:32:21.512Z,4.37
2018-06-08T17:34:51.014Z,4.43
2018-06-08T17:37:22.773Z,4.37
2018-06-08T17:39:53.714Z,4.70
2018-06-08T17:42:23.347Z,5.17
2018-06-08T17:44:53.544Z,5.47
2018-06-08T17:47:23.250Z,4.80
2018-06-08T17:49:52.973Z,4.70
2018-06-08T17:52:22.874Z,4.73
2018-06-08T17:54:52.378Z,5.17
2018-06-08T17:57:22.085Z,5.40
2018-06-08T17:59:52.133Z,5.17
2018-06-08T18:02:21.914Z,5.63
2018-06-08T18:04:52.134Z,5.30
2018-06-08T18:07:21.757Z,5.47
2018-06-08T18:09:51.356Z,9.23
2018-06-08T18:12:21.622Z,7.27
2018-06-08T18:14:51.118Z,6.30
2018-06-08T18:17:21.038Z,6.03
2018-06-08T18:19:50.718Z,5.53
2018-06-08T18:22:20.758Z,5.60
2018-06-08T18:24:50.756Z,5.47
2018-06-08T18:27:21.162Z,5.20
2018-06-08T18:29:51.083Z,6.07
2018-06-08T18:32:20.718Z,5.80
2018-06-08T18:34:50.698Z,6.30
2018-06-08T18:37:20.758Z,6.20
2018-06-08T18:39:50.259Z,5.73
2018-06-08T18:42:19.752Z,5.70
2018-06-08T18:44:49.345Z,5.37
2018-06-08T18:47:18.932Z,6.23
2018-06-08T18:49:48.541Z,6.80
2018-06-08T18:52:17.742Z,7.63
2018-06-08T18:54:47.654Z,10.33
2018-06-08T18:57:17.162Z,10.30
2018-06-08T18:59:46.559Z,9.43
2018-06-08T19:02:15.752Z,8.43
2018-06-08T19:04:45.360Z,10.47
2018-06-08T19:07:14.785Z,10.50
2018-06-08T19:09:43.963Z,8.67
2018-06-08T19:12:13.469Z,7.90
2018-06-08T19:14:42.876Z,7.27
2018-06-08T19:17:12.579Z,6.60
2018-06-08T19:19:41.876Z,6.70
2018-06-08T19:22:11.485Z,7.03
2018-06-08T19:24:40.885Z,7.10
2018-06-08T19:27:10.185Z,7.07
2018-06-08T19:29:39.390Z,6.83
2018-06-08T19:32:18.316Z,6.40
2018-06-08T19:34:48.943Z,7.43
2018-06-08T19:37:18.264Z,7.43
2018-06-08T19:39:47.949Z,6.93
2018-06-08T19:42:17.754Z,6.47
2018-06-08T19:44:47.093Z,5.80
2018-06-08T19:47:16.364Z,6.83
2018-06-08T19:49:45.966Z,6.13
2018-06-08T19:52:15.369Z,6.13
2018-06-08T19:54:44.768Z,7.17
2018-06-08T19:57:14.887Z,6.43
2018-06-08T19:59:44.188Z,6.47
2018-06-08T20:02:13.692Z,6.23
2018-06-08T20:04:43.317Z,5.87
2018-06-08T20:07:13.118Z,6.63
2018-06-08T20:09:42.516Z,7.07
2018-06-08T20:12:11.922Z,8.00
2018-06-08T20:14:41.526Z,7.63
2018-06-08T20:17:11.032Z,7.37
2018-06-08T20:19:40.746Z,8.13
2018-06-08T20:22:10.255Z,7.53
2018-06-08T20:24:39.835Z,7.87
2018-06-08T20:27:09.146Z,7.37
2018-06-08T20:29:38.550Z,6.53
2018-06-08T20:32:07.752Z,6.97
2018-06-08T20:34:36.951Z,6.93
2018-06-08T20:37:06.259Z,6.03
2018-06-08T20:39:35.543Z,6.40
2018-06-08T20:42:04.742Z,6.60
2018-06-08T20:44:33.826Z,6.83
2018-06-08T20:47:03.138Z,6.70
2018-06-08T20:49:32.556Z,6.33
2018-06-08T20:52:01.756Z,6.17
2018-06-08T20:54:31.248Z,6.10
2018-06-08T20:57:05.052Z,7.23
2018-06-08T20:59:34.656Z,7.60
2018-06-08T21:02:04.107Z,8.30
2018-06-08T21:04:33.471Z,8.70
2018-06-08T21:07:03.176Z,7.63
2018-06-08T21:09:32.467Z,8.10
2018-06-08T21:12:02.188Z,9.07
2018-06-08T21:14:32.002Z,8.77
2018-06-08T21:17:01.396Z,8.53
2018-06-08T21:19:30.896Z,8.27
2018-06-08T21:22:00.612Z,7.27
2018-06-08T21:24:30.215Z,7.77
2018-06-08T21:26:59.855Z,7.17
2018-06-08T21:29:29.228Z,8.37
2018-06-08T21:31:58.625Z,8.00
2018-06-08T21:34:27.819Z,7.47
2018-06-08T21:36:57.436Z,6.23
2018-06-08T21:39:26.828Z,6.63
2018-06-08T21:41:56.138Z,6.63
2018-06-08T21:44:25.447Z,7.50
2018-06-08T21:46:54.736Z,7.20
2018-06-08T21:49:23.835Z,6.90
2018-06-08T21:51:53.235Z,6.47
2018-06-08T21:54:22.736Z,6.40
2018-06-08T21:56:51.831Z,6.10
2018-06-08T21:59:21.227Z,6.27
2018-06-08T22:01:50.752Z,5.53
2018-06-08T22:04:20.136Z,5.27
2018-06-08T22:06:49.829Z,4.50
2018-06-08T22:09:19.871Z,4.27
2018-06-08T22:11:49.268Z,4.00
2018-06-08T22:14:18.503Z,4.07
2018-06-08T22:16:47.876Z,3.90
2018-06-08T22:19:17.277Z,3.67
2018-06-08T22:21:47.075Z,3.63
2018-06-08T22:24:16.375Z,4.30
2018-06-08T22:26:45.987Z,3.83
2018-06-08T22:29:17.243Z,4.30
2018-06-08T22:31:46.756Z,3.93
2018-06-08T22:34:16.035Z,3.60
2018-06-08T22:36:45.335Z,4.10
2018-06-08T22:39:15.047Z,3.50
2018-06-08T22:41:44.648Z,3.80
2018-06-08T22:44:14.153Z,3.60
2018-06-08T22:46:43.555Z,3.90
2018-06-08T22:49:12.756Z,3.87
2018-06-08T22:51:42.155Z,4.30
2018-06-08T22:54:11.453Z,3.80
2018-06-08T22:56:40.953Z,3.60
2018-06-08T22:59:10.566Z,3.67
2018-06-08T23:01:40.184Z,4.00
2018-06-08T23:04:09.485Z,3.33
2018-06-08T23:06:38.777Z,3.57
2018-06-08T23:09:08.385Z,3.03
2018-06-08T23:11:37.785Z,3.60
2018-06-08T23:14:07.285Z,3.40
2018-06-08T23:16:36.586Z,3.53
2018-06-08T23:19:05.996Z,4.30
2018-06-08T23:21:35.185Z,3.67
2018-06-08T23:24:04.485Z,3.60
2018-06-08T23:26:33.997Z,3.60
2018-06-08T23:29:03.715Z,3.77
2018-06-08T23:31:33.315Z,3.50
2018-06-08T23:34:02.748Z,3.50
2018-06-08T23:36:32.113Z,4.20
2018-06-08T23:39:01.513Z,3.17
2018-06-08T23:41:30.707Z,3.77
2018-06-08T23:44:00.215Z,4.10
2018-06-08T23:46:29.723Z,3.27
2018-06-08T23:48:59.015Z,3.50
2018-06-08T23:51:28.633Z,3.67
2018-06-08T23:53:58.122Z,3.57
2018-06-08T23:56:27.940Z,4.00
2018-06-08T23:58:57.443Z,3.27
